Barbados Meteorological Services
Auto gathered TAF list
Powered by Apparatus software
For Flight BW447
Contact Number 1-(246)-535-0021/2/3/4/5/6
WEB: http://www.barbadosweather.org

**********************************************

2022/05/24 18:11
TAF TVSA 241700Z 2418/2518 08011KT 9999 SCT018


**********************************************
2022/05/25 18:53
TAF TTPP 251600Z 2518/2618 10014KT 8000 SCT022
BECMG 2600/2602 09003KT 8000 FEW016
BECMG 2612/2614 10014KT 8000 SCT022


**********************************************
2022/05/25 18:53
TAF TTCP 251600Z 2518/2618 10014KT 9999 FEW022
BECMG 2600/2602 08005KT 9999 FEW016
BECMG 2612/2614 11014KT 9999 FEW022


**********************************************
2022/05/25 18:24
TAF TNCM 251600Z 2518/2618 06008KT 9999 SCT019 SCT035


**********************************************
2022/05/25 18:18
TAF TLPL 251700Z 2518/2618 10017KT 9999 SCT026 SCT044 PROB30
TEMPO 2518/2606 SHRA SCT015 BKN040


**********************************************
2022/05/25 18:17
TAF TLPC 251700Z 2518/2618 12011KT 9999 SCT026 SCT044 PROB30
TEMPO 2518/2606 SHRA SCT015 BKN040


**********************************************
2022/05/25 18:39
TAF TJSJ 251734Z 2518/2618 07014G20KT P6SM VCTS FEW025CB SCT050 SCT080
TEMPO 2518/2522 VRB16G25KT 4SM SHRA BKN025 BKN050
FM252300 09010KT P6SM SCT030 SCT050 BKN090
FM260600 VRB05KT P6SM VCSH SCT025 BKN040
FM261400 06015KT P6SM SCT030 SCT060


**********************************************
2022/05/25 18:52
TAF TGPY 251540Z 2518/2618 10015G25KT 9999 FEW023
BECMG 2523/2601 08012KT SCT018
BECMG 2610/2612 10014G24KT FEW023


**********************************************
2022/05/25 18:44
TAF TFFR 251700Z 2518/2618 11010KT 9999 SCT020 BKN060 PROB30
TEMPO 2518/2618 4000 SHRA SCT020TCU PROB40
TEMPO 2600/2610 VRB02KT PROB30
TEMPO 2610/2615 2500 SHRA BKN016TCU


**********************************************
2022/05/25 18:50
TAF TFFF 251700Z 2518/2618 12012KT 9999 BKN020 BKN050 BKN160 PROB30
TEMPO 2518/2618 4000 SHRA BKN018TCU PROB30
TEMPO 2609/2615 2500 SHRA BKN013TCU


**********************************************
2022/05/25 18:11
TAF TDPD 251700Z 2518/2618 11010KT 9999 SCT018
TEMPO 2518/2521 SHRA BKN015


**********************************************
2022/05/25 18:11
TAF TBPB 251700Z 2518/2618 11016KT 9999 SCT018= TAF TVSA 251700Z 2518/2618 09012KT 9999 SCT018


**********************************************
2022/05/25 18:18
TAF TAPA 251700Z 2518/2618 09012KT 9999 SCT018 SCT035 PROB40
TEMPO 2518/2612 SHRA


**********************************************
2022/05/25 18:09
TAF TAF SYCJ 251700Z 2518/2618 07012KT 050V140 9999 FEW012CB SCT016 BKN035 BKN090
TEMPO 2518/2520 5000 SHRA RA BKN035 BKN080
BECMG 2522/2600 VRB02KT 9999 SCT016 SCT100
BECMG 2605/2607 4000 SHRA RA FEW010TCU SCT015 BKN033 BKN080
BECMG 2612/2614 07012KT 9999 BKN018 SCT036 BKN090


**********************************************
2022/05/25 18:08
TAF SVMI 251600Z 2518/2618 09008KT 9999 SCT016 TX33/2518Z TN25/2607Z PROB30
TEMPO 2518/2522 09005KT 9000 -DZ SCT016 SCT080


**********************************************
2022/05/25 18:27
TAF SOCA 251600Z 2518/2618 08015KT 9999 FEW010 SCT030 PROB30
TEMPO 2518/2521 3000 SHRA SCT012 BKN015CB
BECMG 2521/2523 VRB02KT
BECMG 2601/2603 SCT015 BKN025 PROB40
TEMPO 2604/2612 2000 SHRA SCT008 BKN010CB
BECMG 2613/2614 07012KT PROB40
TEMPO 2614/2618 2000 SHRA SCT008 BKN012CB PROB30
TEMPO 2616/2618 1000 TSRA SCT006 BKN010CB


**********************************************
2022/05/25 18:26
TAF SMJP 251600Z 2518/2618 04007KT 9999 SCT030 TX32/2616Z TN23/2609Z
TEMPO 2518/2522 5000 SHRA FEW015CB SCT020 PROB30
TEMPO 2518/2520 TS
TEMPO 2608/2611 VRB02KT 2000 BR SCT002


**********************************************
2022/05/25 18:21
TAF MYNN 251700Z 2518/2618 13015KT 9999 SCT022 PROB30
TEMPO 2612/2616 9000 SHRA SCT018CB SCT045


**********************************************
2022/05/25 18:15
TAF MKJP 251715Z 2518/2618 13022KT 9999 FEW022
BECMG 2606/2608 34006KT
BECMG 2614/2616 13023KT


**********************************************